FW9915 Weather Reports


time (UTC)temp
C
wind
direction
speed
KPH
gust
KPH
rain 1hr
cm
rain 24hr
cm
rain mn
cm
humidity
%
barometer
mb
20220627205024 21 350 11.3 14.5 0.00 0.99 0.99 89 1014.6
20220627204023 20 344 12.9 19.3 0.00 0.99 0.99 89 1014.6
20220627203025 20 335 12.9 17.7 0.00 0.99 0.99 90 1014.7
20220627202025 20 317 11.3 20.9 0.00 0.99 0.99 92 1014.8
20220627201025 20 328 11.3 20.9 0.00 0.99 0.99 92 1015.0
20220627200025 20 324 9.7 14.5 0.00 0.99 0.99 93 1015.1
20220627195023 20 335 6.4 11.3 0.00 0.99 0.99 94 1015.1
20220627194022 20 320 6.4 14.5 0.13 0.99 0.99 93 1015.2
20220627193035 20 324 6.4 11.3 0.13 0.99 0.99 93 1015.2
20220627192022 20 321 1.6 4.8 0.15 0.99 0.99 93 1015.2
20220627191022 20 318 6.4 12.9 0.15 0.99 0.99 92 1015.3
20220627190022 20 330 11.3 19.3 0.15 0.99 0.99 91 1015.2
20220627185025 20 330 12.9 20.9 0.15 0.99 0.99 91 1015.2
20220627184022 20 344 9.7 14.5 0.05 0.89 0.89 90 1015.4
20220627183022 20 338 9.7 17.7 0.05 0.89 0.89 91 1015.2
20220627182035 20 327 11.3 16.1 0.00 0.84 0.84 92 1015.2
20220627181022 20 341 8.0 14.5 0.00 0.84 0.84 92 1014.9
20220627180022 20 321 8.0 12.9 0.00 0.84 0.84 93 1014.7
20220627175023 20 320 3.2 6.4 0.00 0.84 0.84 93 1014.7
20220627174023 20 327 3.2 9.7 0.05 0.84 0.84 93 1014.7
20220627173023 20 334 1.6 8.0 0.08 0.84 0.84 94 1014.7
20220627172022 20 326 1.6 6.4 0.08 0.84 0.84 95 1014.7
20220627171022 20 315 1.6 4.8 0.08 0.84 0.84 96 1014.9
20220627170023 20 338 0.0 1.6 0.08 0.84 0.84 96 1014.9
20220627165022 20 338 0.0 1.6 0.08 0.84 0.84 95 1015.2
20220627164022 20 328 1.6 6.4 0.05 0.79 0.79 95 1015.4
20220627163022 20 0.0 0.0 0.00 0.76 0.76 94 1015.3
20220627162022 20 327 3.2 6.4 0.00 0.76 0.76 93 1015.4
20220627161022 20 332 1.6 6.4 0.00 0.76 0.76 94 1015.4
20220627160022 21 317 3.2 6.4 0.00 0.76 0.76 94 1015.4
20220627155022 21 334 1.6 3.2 0.00 0.76 0.76 94 1015.5
20220627154022 21 319 0.0 1.6 0.00 0.76 0.76 93 1015.5
20220627153022 21 353 1.6 3.2 0.00 0.76 0.76 93 1015.6
20220627152023 21 19 3.2 6.4 0.00 0.76 0.76 92 1015.7
20220627151022 21 29 4.8 6.4 0.00 0.76 0.76 92 1015.7
20220627150022 21 24 4.8 6.4 0.00 0.76 0.76 92 1015.7
20220627145022 21 22 4.8 8.0 0.00 0.76 0.76 91 1015.7
20220627144022 21 20 3.2 6.4 0.00 0.76 0.76 90 1015.7
20220627143022 21 348 3.2 6.4 0.33 0.76 0.76 90 1015.7
20220627142023 21 359 6.4 9.7 0.51 0.76 0.76 90 1015.8
20220627141046 20 344 6.4 9.7 0.51 0.76 0.76 90 1015.9
20220627140024 20 332 6.4 9.7 0.51 0.76 0.76 92 1015.9
20220627135035 20 328 3.2 6.4 0.51 0.76 0.76 93 1015.8
20220627134022 20 326 1.6 6.4 0.56 0.76 0.76 93 1015.9
20220627133022 21 349 9.7 14.5 0.23 0.43 0.43 90 1016.1
20220627132022 21 0.0 0.0 0.08 0.23 0.23 85 1015.7
20220627131022 20 68 0.0 0.0 0.08 0.23 0.23 87 1015.6
20220627130023 19 92 1.6 4.8 0.08 0.23 0.23 89 1015.5
20220627125022 20 69 4.8 8.0 0.08 0.23 0.23 89 1015.6
20220627124022 21 36 12.9 20.9 0.05 0.20 0.20 88 1016.0
20220627123023 23 46 17.7 30.6 0.05 0.20 0.20 81 1015.8
20220627122022 23 66 11.3 14.5 0.00 0.15 0.15 79 1015.4
20220627121023 22 39 8.0 9.7 0.05 0.15 0.15 82 1015.3
20220627120022 22 31 8.0 9.7 0.15 0.15 0.15 83 1015.3
20220627115022 21 34 11.3 14.5 0.15 0.15 0.15 85 1015.2
20220627114022 20 33 8.0 11.3 0.15 0.15 0.15 91 1015.4
20220627113023 20 50 8.0 12.9 0.15 0.15 0.15 90 1015.5
20220627112025 20 57 12.9 17.7 0.15 0.15 0.15 91 1015.8
20220627111022 23 43 20.9 35.4 0.13 0.13 0.13 87 1015.7
20220627110022 25 32 14.5 22.5 0.00 0.00 0.00 61 1015.5
20220627105023 25 2 11.3 17.7 0.00 0.00 0.00 57 1015.2
20220627104023 26 349 12.9 24.1 0.00 0.00 0.00 56 1015.3
20220627103022 26 5 11.3 17.7 0.00 0.00 0.00 56 1015.3
20220627102022 26 358 14.5 24.1 0.00 0.00 0.00 57 1015.3
20220627101022 26 13 11.3 20.9 0.00 0.00 0.00 57 1015.4
20220627100022 26 341 12.9 24.1 0.00 0.00 0.00 57 1015.4
20220627095023 27 333 12.9 25.7 0.00 0.00 0.00 54 1015.4
20220627094022 26 352 12.9 20.9 0.00 0.00 0.00 54 1015.5
20220627093023 26 17 16.1 32.2 0.00 0.00 0.00 57 1015.5
20220627092022 26 16 14.5 24.1 0.00 0.00 0.00 56 1015.6
20220627091022 26 331 12.9 22.5 0.00 0.00 0.00 58 1015.7
20220627090022 26 357 14.5 22.5 0.00 0.00 0.00 57 1015.8
20220627085022 26 2 14.5 25.7 0.00 0.00 0.00 58 1015.8
20220627084033 26 26 11.3 32.2 0.00 0.00 0.00 59 1015.8
20220627083021 26 8 14.5 25.7 0.00 0.00 0.00 59 1015.8
20220627082021 26 358 11.3 17.7 0.00 0.00 0.00 58 1015.8
20220627081022 25 20 12.9 25.7 0.00 0.00 0.00 59 1015.8
20220627080021 25 4 12.9 24.1 0.00 0.00 0.00 60 1015.9
20220627075022 25 350 9.7 16.1 0.00 0.00 0.00 61 1015.9
20220627074023 25 16 11.3 17.7 0.00 0.00 0.00 61 1015.8
20220627073023 25 21 14.5 29.0 0.00 0.00 0.00 63 1015.9
20220627072033 25 339 14.5 25.7 0.00 0.00 0.00 64 1015.8
20220627071023 24 8 17.7 33.8 0.00 0.00 0.00 65 1015.8
20220627070023 24 5 12.9 17.7 0.00 0.00 0.00 65 1015.8
20220627065033 23 353 12.9 19.3 0.00 0.00 0.00 68 1015.7
20220627064034 23 355 11.3 24.1 0.00 0.00 0.00 69 1015.8
20220627063023 23 351 9.7 16.1 0.00 0.00 0.00 72 1015.9
20220627062021 23 333 8.0 16.1 0.00 0.00 0.00 73 1016.0
20220627061021 22 326 6.4 11.3 0.00 0.00 0.00 73 1016.1
20220627060023 22 356 9.7 16.1 0.00 0.00 0.00 75 1016.1
20220627055021 22 341 8.0 14.5 0.00 0.00 0.00 76 1016.1
20220627054023 21 334 8.0 14.5 0.00 0.00 0.00 77 1016.1
20220627053022 21 329 9.7 14.5 0.00 0.00 0.00 78 1016.0
20220627052035 21 341 9.7 14.5 0.00 0.00 0.00 77 1016.0
20220627051022 21 351 8.0 11.3 0.00 0.00 0.00 78 1015.9
20220627050021 21 350 6.4 14.5 0.00 0.00 0.00 78 1015.9
20220627045033 21 353 8.0 14.5 0.00 0.00 0.00 79 1015.8
20220627044021 20 351 8.0 16.1 0.00 0.00 0.00 81 1015.7
20220627043023 19 334 8.0 14.5 0.00 0.00 0.00 83 1015.6
20220627042021 18 327 11.3 17.7 0.00 0.00 0.00 87 1015.6
20220627041023 18 330 11.3 17.7 0.00 0.00 0.00 89 1015.6
20220627040021 17 334 11.3 20.9 0.00 0.00 0.00 90 1015.6
20220627035022 17 327 9.7 17.7 0.00 0.00 0.00 90 1015.5
20220627034033 17 333 11.3 14.5 0.00 0.00 0.00 90 1015.6
20220627033046 17 333 9.7 16.1 0.00 0.00 0.00 90 1015.6
20220627032022 17 327 11.3 16.1 0.00 0.00 0.00 90 1015.5
20220627031034 17 328 9.7 17.7 0.00 0.00 0.00 90 1015.5
20220627030022 17 319 9.7 14.5 0.00 0.00 0.00 90 1015.5
20220627025022 17 336 8.0 12.9 0.00 0.00 0.00 91 1015.5
20220627024021 17 337 9.7 14.5 0.00 0.00 0.00 90 1015.5
20220627023022 17 343 9.7 16.1 0.00 0.00 0.00 90 1015.4
20220627022022 17 331 11.3 19.3 0.00 0.00 0.00 90 1015.4
20220627021034 17 335 11.3 14.5 0.00 0.00 0.00 90 1015.4
20220627020021 17 336 11.3 16.1 0.00 0.00 0.00 90 1015.4
20220627015021 17 349 11.3 17.7 0.00 0.00 0.00 90 1015.4
20220627014022 17 349 12.9 17.7 0.00 0.00 0.00 88 1015.4
20220627013021 17 347 11.3 16.1 0.00 0.00 0.00 87 1015.4
20220627012021 17 353 11.3 14.5 0.00 0.00 0.00 86 1015.4
20220627011021 18 352 9.7 14.5 0.00 0.00 0.00 85 1015.4
20220627010022 18 346 9.7 16.1 0.00 0.00 0.00 84 1015.3
20220627005033 18 336 11.3 14.5 0.00 0.00 0.00 85 1015.3
20220627004021 18 333 11.3 19.3 0.00 0.00 0.00 85 1015.4
20220627003021 18 341 9.7 14.5 0.00 0.00 0.00 85 1015.5
20220627002024 18 339 9.7 14.5 0.00 0.00 0.00 85 1015.5
20220627001021 18 345 9.7 14.5 0.00 0.00 0.00 83 1015.6
20220627000023 18 338 11.3 16.1 0.00 0.00 0.00 83 1015.5
20220626235021 18 332 11.3 20.9 0.00 0.00 0.00 84 1015.4
20220626234022 18 339 9.7 14.5 0.00 0.00 0.00 85 1015.5
20220626233034 18 356 9.7 14.5 0.00 0.00 0.00 84 1015.5
20220626232021 18 349 9.7 14.5 0.00 0.00 0.00 84 1015.5
20220626231022 18 345 9.7 14.5 0.00 0.00 0.00 84 1015.5
20220626230045 19 340 8.0 14.5 0.00 0.00 0.00 84 1015.5
20220626225021 19 342 8.0 12.9 0.00 0.00 0.00 83 1015.5
20220626224021 19 342 6.4 11.3 0.00 0.00 0.00 82 1015.5
20220626223023 19 331 9.7 14.5 0.00 0.00 0.00 81 1015.6
20220626222022 19 334 8.0 11.3 0.00 0.00 0.00 81 1015.7
20220626221022 19 337 1.6 8.0 0.00 0.00 0.00 82 1015.7
20220626220022 19 335 3.2 6.4 0.00 0.00 0.00 83 1015.7
20220626215023 19 329 6.4 9.7 0.00 0.00 0.00 82 1015.6
20220626214022 19 323 8.0 11.3 0.00 0.00 0.00 82 1015.7
20220626213022 19 332 8.0 11.3 0.00 0.00 0.00 82 1015.7
20220626212034 19 327 4.8 9.7 0.00 0.00 0.00 83 1015.7
20220626211022 19 334 4.8 6.4 0.00 0.00 0.00 83 1015.8
20220626210021 19 333 1.6 6.4 0.00 0.00 0.00 84 1015.9